sensor_id;sensor_type;location;lat;lon;timestamp;pressure;altitude;pressure_sealevel;temperature;humidity
57900;BME280;60605;53.716;19.940;2024-02-26T00:02:56;99424.66;;;4.39;100.00
57900;BME280;60605;53.716;19.940;2024-02-26T00:07:58;99421.98;;;4.27;100.00
57900;BME280;60605;53.716;19.940;2024-02-26T00:13:04;99424.09;;;4.15;100.00
57900;BME280;60605;53.716;19.940;2024-02-26T00:18:06;99422.78;;;4.02;100.00
57900;BME280;60605;53.716;19.940;2024-02-26T00:23:08;99426.41;;;3.89;100.00
57900;BME280;60605;53.716;19.940;2024-02-26T00:28:11;99418.09;;;3.77;100.00
57900;BME280;60605;53.716;19.940;2024-02-26T00:33:17;99418.09;;;3.67;100.00
57900;BME280;60605;53.716;19.940;2024-02-26T00:38:19;99412.83;;;3.56;100.00
57900;BME280;60605;53.716;19.940;2024-02-26T00:43:21;99414.70;;;3.44;100.00
57900;BME280;60605;53.716;19.940;2024-02-26T00:48:23;99417.70;;;3.34;100.00
57900;BME280;60605;53.716;19.940;2024-02-26T00:53:27;99417.98;;;3.25;100.00
57900;BME280;60605;53.716;19.940;2024-02-26T00:58:31;99415.25;;;3.11;100.00
57900;BME280;60605;53.716;19.940;2024-02-26T01:03:32;99410.50;;;2.96;100.00
57900;BME280;60605;53.716;19.940;2024-02-26T01:08:35;99410.25;;;2.82;100.00
57900;BME280;60605;53.716;19.940;2024-02-26T01:13:37;99408.41;;;2.70;100.00
57900;BME280;60605;53.716;19.940;2024-02-26T01:18:39;99404.23;;;2.63;100.00
57900;BME280;60605;53.716;19.940;2024-02-26T01:23:42;99405.34;;;2.61;100.00
57900;BME280;60605;53.716;19.940;2024-02-26T01:28:44;99409.79;;;2.60;100.00
57900;BME280;60605;53.716;19.940;2024-02-26T01:33:46;99407.75;;;2.62;100.00
57900;BME280;60605;53.716;19.940;2024-02-26T01:38:49;99415.08;;;2.60;100.00
57900;BME280;60605;53.716;19.940;2024-02-26T01:43:51;99418.94;;;2.54;100.00
57900;BME280;60605;53.716;19.940;2024-02-26T01:48:53;99429.49;;;2.50;100.00
57900;BME280;60605;53.716;19.940;2024-02-26T01:53:55;99429.63;;;2.50;100.00
57900;BME280;60605;53.716;19.940;2024-02-26T01:58:58;99430.11;;;2.51;100.00
57900;BME280;60605;53.716;19.940;2024-02-26T02:04:01;99424.73;;;2.43;100.00
57900;BME280;60605;53.716;19.940;2024-02-26T02:09:03;99426.50;;;2.33;100.00
57900;BME280;60605;53.716;19.940;2024-02-26T02:14:08;99426.75;;;2.23;100.00
57900;BME280;60605;53.716;19.940;2024-02-26T02:19:10;99429.69;;;2.15;100.00
57900;BME280;60605;53.716;19.940;2024-02-26T02:24:12;99428.44;;;2.04;100.00
57900;BME280;60605;53.716;19.940;2024-02-26T02:29:14;99429.93;;;1.94;100.00
57900;BME280;60605;53.716;19.940;2024-02-26T02:34:16;99433.63;;;1.85;100.00
57900;BME280;60605;53.716;19.940;2024-02-26T02:39:19;99434.00;;;1.75;100.00
57900;BME280;60605;53.716;19.940;2024-02-26T02:44:21;99434.79;;;1.63;100.00
57900;BME280;60605;53.716;19.940;2024-02-26T02:49:23;99431.54;;;1.55;100.00
57900;BME280;60605;53.716;19.940;2024-02-26T02:54:25;99433.48;;;1.55;100.00
57900;BME280;60605;53.716;19.940;2024-02-26T02:59:27;99436.52;;;1.56;100.00
57900;BME280;60605;53.716;19.940;2024-02-26T03:04:29;99438.58;;;1.53;100.00
57900;BME280;60605;53.716;19.940;2024-02-26T03:09:32;99433.83;;;1.46;100.00
57900;BME280;60605;53.716;19.940;2024-02-26T03:14:34;99437.02;;;1.36;100.00
57900;BME280;60605;53.716;19.940;2024-02-26T03:19:35;99443.09;;;1.26;100.00
57900;BME280;60605;53.716;19.940;2024-02-26T03:24:38;99449.27;;;1.19;100.00
57900;BME280;60605;53.716;19.940;2024-02-26T03:29:40;99447.43;;;1.13;100.00
57900;BME280;60605;53.716;19.940;2024-02-26T03:34:43;99452.80;;;1.07;100.00
57900;BME280;60605;53.716;19.940;2024-02-26T03:39:47;99450.81;;;1.05;100.00
57900;BME280;60605;53.716;19.940;2024-02-26T03:44:49;99456.65;;;1.05;100.00
57900;BME280;60605;53.716;19.940;2024-02-26T03:49:51;99460.87;;;1.03;100.00
57900;BME280;60605;53.716;19.940;2024-02-26T03:54:53;99465.23;;;1.00;100.00
57900;BME280;60605;53.716;19.940;2024-02-26T03:59:56;99469.09;;;0.98;100.00
57900;BME280;60605;53.716;19.940;2024-02-26T04:04:58;99473.38;;;0.98;100.00
57900;BME280;60605;53.716;19.940;2024-02-26T04:10:01;99484.31;;;0.99;100.00
57900;BME280;60605;53.716;19.940;2024-02-26T04:15:09;99484.47;;;1.00;100.00
57900;BME280;60605;53.716;19.940;2024-02-26T04:20:15;99485.41;;;0.96;100.00
57900;BME280;60605;53.716;19.940;2024-02-26T04:25:18;99490.92;;;0.93;100.00
57900;BME280;60605;53.716;19.940;2024-02-26T04:30:20;99486.19;;;0.91;100.00
57900;BME280;60605;53.716;19.940;2024-02-26T04:35:22;99486.37;;;0.88;100.00
57900;BME280;60605;53.716;19.940;2024-02-26T04:40:24;99485.43;;;0.84;100.00
57900;BME280;60605;53.716;19.940;2024-02-26T04:45:27;99489.42;;;0.80;100.00
57900;BME280;60605;53.716;19.940;2024-02-26T04:50:29;99490.77;;;0.76;100.00
57900;BME280;60605;53.716;19.940;2024-02-26T04:55:31;99489.84;;;0.77;100.00
57900;BME280;60605;53.716;19.940;2024-02-26T05:00:33;99487.28;;;0.78;100.00
57900;BME280;60605;53.716;19.940;2024-02-26T05:05:35;99478.16;;;0.83;100.00
57900;BME280;60605;53.716;19.940;2024-02-26T05:10:38;99480.73;;;0.88;100.00
57900;BME280;60605;53.716;19.940;2024-02-26T05:15:45;99475.86;;;0.92;100.00
57900;BME280;60605;53.716;19.940;2024-02-26T05:20:49;99476.29;;;0.91;100.00
57900;BME280;60605;53.716;19.940;2024-02-26T05:25:51;99479.83;;;0.84;100.00
57900;BME280;60605;53.716;19.940;2024-02-26T05:30:54;99491.05;;;0.77;100.00
57900;BME280;60605;53.716;19.940;2024-02-26T05:35:56;99495.16;;;0.71;100.00
57900;BME280;60605;53.716;19.940;2024-02-26T05:40:59;99500.76;;;0.67;100.00
57900;BME280;60605;53.716;19.940;2024-02-26T05:46:01;99501.03;;;0.63;100.00
57900;BME280;60605;53.716;19.940;2024-02-26T05:51:04;99500.59;;;0.62;100.00
57900;BME280;60605;53.716;19.940;2024-02-26T05:56:06;99505.39;;;0.64;100.00
57900;BME280;60605;53.716;19.940;2024-02-26T06:01:08;99510.06;;;0.65;100.00
57900;BME280;60605;53.716;19.940;2024-02-26T06:06:12;99504.49;;;0.69;100.00
57900;BME280;60605;53.716;19.940;2024-02-26T06:11:14;99507.98;;;0.81;100.00
57900;BME280;60605;53.716;19.940;2024-02-26T06:16:17;99511.55;;;0.99;100.00
57900;BME280;60605;53.716;19.940;2024-02-26T06:21:18;99519.96;;;1.28;100.00
57900;BME280;60605;53.716;19.940;2024-02-26T06:26:21;99532.57;;;1.69;100.00
57900;BME280;60605;53.716;19.940;2024-02-26T06:31:23;99535.96;;;2.34;100.00
57900;BME280;60605;53.716;19.940;2024-02-26T06:36:25;99530.41;;;3.45;100.00
57900;BME280;60605;53.716;19.940;2024-02-26T06:41:27;99538.38;;;4.84;100.00
57900;BME280;60605;53.716;19.940;2024-02-26T06:46:31;99546.70;;;6.40;100.00
57900;BME280;60605;53.716;19.940;2024-02-26T06:51:34;99555.25;;;7.91;100.00
57900;BME280;60605;53.716;19.940;2024-02-26T06:56:36;99567.14;;;9.46;100.00
57900;BME280;60605;53.716;19.940;2024-02-26T07:01:41;99572.41;;;11.07;100.00
57900;BME280;60605;53.716;19.940;2024-02-26T07:06:44;99577.00;;;12.89;100.00
57900;BME280;60605;53.716;19.940;2024-02-26T07:11:48;99582.54;;;14.50;95.25
57900;BME280;60605;53.716;19.940;2024-02-26T07:16:50;99589.30;;;15.89;89.17
57900;BME280;60605;53.716;19.940;2024-02-26T07:21:52;99596.13;;;17.01;83.06
57900;BME280;60605;53.716;19.940;2024-02-26T07:26:55;99594.84;;;18.07;78.58
57900;BME280;60605;53.716;19.940;2024-02-26T07:31:58;99601.58;;;19.00;74.73
57900;BME280;60605;53.716;19.940;2024-02-26T07:37:00;99604.98;;;19.80;72.49
57900;BME280;60605;53.716;19.940;2024-02-26T07:42:03;99603.95;;;20.84;69.84
57900;BME280;60605;53.716;19.940;2024-02-26T07:47:05;99597.79;;;21.51;65.43
57900;BME280;60605;53.716;19.940;2024-02-26T07:52:07;99597.74;;;22.02;63.15
57900;BME280;60605;53.716;19.940;2024-02-26T07:57:09;99599.40;;;22.71;60.86
57900;BME280;60605;53.716;19.940;2024-02-26T08:02:11;99605.93;;;23.23;56.37
57900;BME280;60605;53.716;19.940;2024-02-26T08:07:13;99605.04;;;23.43;55.51
57900;BME280;60605;53.716;19.940;2024-02-26T08:12:15;99611.09;;;23.61;55.05
57900;BME280;60605;53.716;19.940;2024-02-26T08:17:18;99610.67;;;23.82;54.08
57900;BME280;60605;53.716;19.940;2024-02-26T08:22:20;99619.16;;;24.25;51.24
57900;BME280;60605;53.716;19.940;2024-02-26T08:27:22;99624.14;;;25.11;49.91
57900;BME280;60605;53.716;19.940;2024-02-26T08:32:26;99626.61;;;25.60;47.29
57900;BME280;60605;53.716;19.940;2024-02-26T08:37:29;99630.98;;;25.92;44.75
57900;BME280;60605;53.716;19.940;2024-02-26T08:42:31;99636.45;;;26.25;43.97
57900;BME280;60605;53.716;19.940;2024-02-26T08:47:34;99641.30;;;26.73;42.52
57900;BME280;60605;53.716;19.940;2024-02-26T08:52:36;99648.45;;;27.13;42.21
57900;BME280;60605;53.716;19.940;2024-02-26T08:57:38;99653.56;;;27.29;40.77
57900;BME280;60605;53.716;19.940;2024-02-26T09:02:41;99661.81;;;27.83;40.28
57900;BME280;60605;53.716;19.940;2024-02-26T09:07:45;99662.23;;;28.71;36.95
57900;BME280;60605;53.716;19.940;2024-02-26T09:12:48;99660.38;;;29.45;35.49
57900;BME280;60605;53.716;19.940;2024-02-26T09:17:50;99658.71;;;30.26;34.64
57900;BME280;60605;53.716;19.940;2024-02-26T09:22:53;99658.45;;;30.55;33.33
57900;BME280;60605;53.716;19.940;2024-02-26T09:27:56;99673.12;;;30.10;32.97
57900;BME280;60605;53.716;19.940;2024-02-26T09:32:58;99675.02;;;29.78;33.53
57900;BME280;60605;53.716;19.940;2024-02-26T09:38:00;99671.61;;;29.91;34.02
57900;BME280;60605;53.716;19.940;2024-02-26T09:43:04;99673.41;;;30.66;34.66
57900;BME280;60605;53.716;19.940;2024-02-26T09:48:08;99680.67;;;30.98;32.29
57900;BME280;60605;53.716;19.940;2024-02-26T09:53:13;99679.90;;;30.35;32.66
57900;BME280;60605;53.716;19.940;2024-02-26T09:58:16;99680.06;;;29.91;32.29
57900;BME280;60605;53.716;19.940;2024-02-26T10:03:22;99681.34;;;28.96;32.89
57900;BME280;60605;53.716;19.940;2024-02-26T10:08:28;99686.41;;;27.89;34.45
57900;BME280;60605;53.716;19.940;2024-02-26T10:13:31;99690.14;;;26.46;35.94
57900;BME280;60605;53.716;19.940;2024-02-26T10:18:46;99689.02;;;24.64;38.09
57900;BME280;60605;53.716;19.940;2024-02-26T10:24:00;99684.23;;;23.71;40.04
57900;BME280;60605;53.716;19.940;2024-02-26T10:29:02;99679.93;;;22.09;42.19
57900;BME280;60605;53.716;19.940;2024-02-26T10:34:05;99678.52;;;20.57;45.85
57900;BME280;60605;53.716;19.940;2024-02-26T10:39:07;99681.65;;;19.36;47.97
57900;BME280;60605;53.716;19.940;2024-02-26T10:44:10;99678.46;;;18.36;50.32
57900;BME280;60605;53.716;19.940;2024-02-26T10:49:19;99678.12;;;17.31;52.51
57900;BME280;60605;53.716;19.940;2024-02-26T10:54:25;99673.02;;;16.19;55.22
57900;BME280;60605;53.716;19.940;2024-02-26T10:59:29;99675.37;;;15.72;57.81
57900;BME280;60605;53.716;19.940;2024-02-26T11:04:34;99676.34;;;15.41;58.20
57900;BME280;60605;53.716;19.940;2024-02-26T11:09:36;99674.05;;;15.16;59.32
57900;BME280;60605;53.716;19.940;2024-02-26T11:14:45;99667.26;;;15.01;59.81
57900;BME280;60605;53.716;19.940;2024-02-26T11:19:48;99670.02;;;15.19;60.16
57900;BME280;60605;53.716;19.940;2024-02-26T11:24:55;99667.44;;;15.51;60.16
57900;BME280;60605;53.716;19.940;2024-02-26T11:30:04;99665.85;;;15.87;59.95
57900;BME280;60605;53.716;19.940;2024-02-26T11:35:08;99663.54;;;16.11;59.05
57900;BME280;60605;53.716;19.940;2024-02-26T11:40:12;99663.05;;;16.16;57.81
57900;BME280;60605;53.716;19.940;2024-02-26T11:50:45;99661.17;;;15.83;56.88
57900;BME280;60605;53.716;19.940;2024-02-26T11:56:12;99670.59;;;15.63;56.99
57900;BME280;60605;53.716;19.940;2024-02-26T12:01:39;99671.63;;;15.55;57.34
57900;BME280;60605;53.716;19.940;2024-02-26T12:06:45;99673.43;;;15.32;56.74
57900;BME280;60605;53.716;19.940;2024-02-26T12:11:48;99674.36;;;15.01;57.26
57900;BME280;60605;53.716;19.940;2024-02-26T12:16:51;99677.94;;;14.71;57.98
57900;BME280;60605;53.716;19.940;2024-02-26T12:21:54;99672.38;;;14.50;59.46
57900;BME280;60605;53.716;19.940;2024-02-26T12:26:56;99674.71;;;14.38;60.34
57900;BME280;60605;53.716;19.940;2024-02-26T12:32:00;99676.70;;;14.38;60.94
57900;BME280;60605;53.716;19.940;2024-02-26T12:37:06;99678.84;;;14.37;60.90
57900;BME280;60605;53.716;19.940;2024-02-26T12:42:10;99677.42;;;14.37;61.40
57900;BME280;60605;53.716;19.940;2024-02-26T12:47:12;99675.58;;;14.30;60.56
57900;BME280;60605;53.716;19.940;2024-02-26T12:52:18;99670.58;;;14.21;61.28
57900;BME280;60605;53.716;19.940;2024-02-26T12:57:20;99672.06;;;14.16;61.73
57900;BME280;60605;53.716;19.940;2024-02-26T13:02:23;99671.73;;;14.16;62.67
57900;BME280;60605;53.716;19.940;2024-02-26T13:07:26;99672.46;;;14.15;61.78
57900;BME280;60605;53.716;19.940;2024-02-26T13:12:28;99670.35;;;14.14;62.31
57900;BME280;60605;53.716;19.940;2024-02-26T13:17:32;99673.40;;;14.17;63.06
57900;BME280;60605;53.716;19.940;2024-02-26T13:22:35;99673.54;;;14.24;63.32
57900;BME280;60605;53.716;19.940;2024-02-26T13:27:37;99672.39;;;14.31;63.44
57900;BME280;60605;53.716;19.940;2024-02-26T13:32:40;99669.85;;;14.37;62.32
57900;BME280;60605;53.716;19.940;2024-02-26T13:37:42;99668.29;;;14.35;61.90
57900;BME280;60605;53.716;19.940;2024-02-26T13:42:45;99672.98;;;14.31;61.03
57900;BME280;60605;53.716;19.940;2024-02-26T13:47:47;99675.04;;;14.21;61.92
57900;BME280;60605;53.716;19.940;2024-02-26T13:52:50;99679.45;;;14.17;62.30
57900;BME280;60605;53.716;19.940;2024-02-26T13:57:56;99677.66;;;14.13;62.34
57900;BME280;60605;53.716;19.940;2024-02-26T14:02:59;99673.77;;;14.04;61.31
57900;BME280;60605;53.716;19.940;2024-02-26T14:08:03;99670.21;;;13.97;61.21
57900;BME280;60605;53.716;19.940;2024-02-26T14:13:05;99671.07;;;13.88;61.68
57900;BME280;60605;53.716;19.940;2024-02-26T14:18:07;99674.19;;;13.83;62.15
57900;BME280;60605;53.716;19.940;2024-02-26T14:23:10;99671.75;;;13.77;62.57
57900;BME280;60605;53.716;19.940;2024-02-26T14:28:12;99674.28;;;13.71;63.27
57900;BME280;60605;53.716;19.940;2024-02-26T14:33:23;99678.88;;;13.66;62.97
57900;BME280;60605;53.716;19.940;2024-02-26T14:38:26;99679.47;;;13.60;62.75
57900;BME280;60605;53.716;19.940;2024-02-26T14:43:28;99681.80;;;13.55;63.04
57900;BME280;60605;53.716;19.940;2024-02-26T14:48:31;99683.95;;;13.51;63.44
57900;BME280;60605;53.716;19.940;2024-02-26T14:53:34;99684.93;;;13.46;63.76
57900;BME280;60605;53.716;19.940;2024-02-26T14:58:36;99687.50;;;13.38;64.09
57900;BME280;60605;53.716;19.940;2024-02-26T15:03:40;99691.06;;;13.30;64.36
57900;BME280;60605;53.716;19.940;2024-02-26T15:08:42;99693.80;;;13.19;64.99
57900;BME280;60605;53.716;19.940;2024-02-26T15:13:44;99696.13;;;13.07;65.63
57900;BME280;60605;53.716;19.940;2024-02-26T15:18:47;99692.66;;;12.93;66.14
57900;BME280;60605;53.716;19.940;2024-02-26T15:23:49;99700.01;;;12.78;66.58
57900;BME280;60605;53.716;19.940;2024-02-26T15:29:08;99705.13;;;12.61;67.21
57900;BME280;60605;53.716;19.940;2024-02-26T15:34:11;99713.92;;;12.42;68.06
57900;BME280;60605;53.716;19.940;2024-02-26T15:39:14;99726.41;;;12.21;68.80
57900;BME280;60605;53.716;19.940;2024-02-26T15:44:16;99737.15;;;11.96;69.83
57900;BME280;60605;53.716;19.940;2024-02-26T15:49:18;99737.44;;;11.69;70.80
57900;BME280;60605;53.716;19.940;2024-02-26T15:54:20;99735.80;;;11.41;71.91
57900;BME280;60605;53.716;19.940;2024-02-26T15:59:22;99735.17;;;11.13;73.36
57900;BME280;60605;53.716;19.940;2024-02-26T16:04:24;99737.75;;;10.85;74.97
57900;BME280;60605;53.716;19.940;2024-02-26T16:09:27;99742.02;;;10.54;76.30
57900;BME280;60605;53.716;19.940;2024-02-26T16:14:46;99743.09;;;10.23;77.99
57900;BME280;60605;53.716;19.940;2024-02-26T16:19:49;99749.95;;;9.94;79.44
57900;BME280;60605;53.716;19.940;2024-02-26T16:24:53;99752.09;;;9.67;80.80
57900;BME280;60605;53.716;19.940;2024-02-26T16:29:55;99755.66;;;9.44;82.35
57900;BME280;60605;53.716;19.940;2024-02-26T16:35:01;99758.59;;;9.23;83.88
57900;BME280;60605;53.716;19.940;2024-02-26T16:40:05;99761.73;;;9.06;85.29
57900;BME280;60605;53.716;19.940;2024-02-26T16:45:07;99761.77;;;8.92;86.64
57900;BME280;60605;53.716;19.940;2024-02-26T16:50:10;99763.81;;;8.78;87.91
57900;BME280;60605;53.716;19.940;2024-02-26T16:55:12;99775.38;;;8.70;89.13
57900;BME280;60605;53.716;19.940;2024-02-26T17:00:16;99779.55;;;8.62;89.87
57900;BME280;60605;53.716;19.940;2024-02-26T17:05:19;99786.80;;;8.54;90.44
57900;BME280;60605;53.716;19.940;2024-02-26T17:10:21;99788.20;;;8.41;90.70
57900;BME280;60605;53.716;19.940;2024-02-26T17:15:23;99802.59;;;8.25;91.00
57900;BME280;60605;53.716;19.940;2024-02-26T17:20:25;99816.89;;;8.07;91.69
57900;BME280;60605;53.716;19.940;2024-02-26T17:25:27;99822.65;;;7.86;91.89
57900;BME280;60605;53.716;19.940;2024-02-26T17:30:29;99828.10;;;7.65;92.78
57900;BME280;60605;53.716;19.940;2024-02-26T17:35:31;99823.77;;;7.45;94.00
57900;BME280;60605;53.716;19.940;2024-02-26T17:40:33;99825.52;;;7.29;95.48
57900;BME280;60605;53.716;19.940;2024-02-26T17:45:35;99825.24;;;7.16;96.63
57900;BME280;60605;53.716;19.940;2024-02-26T17:50:38;99830.05;;;7.04;97.52
57900;BME280;60605;53.716;19.940;2024-02-26T17:55:41;99827.92;;;6.99;99.45
57900;BME280;60605;53.716;19.940;2024-02-26T18:00:47;99836.52;;;6.98;100.00
57900;BME280;60605;53.716;19.940;2024-02-26T18:05:51;99837.55;;;7.00;100.00
57900;BME280;60605;53.716;19.940;2024-02-26T18:10:53;99836.77;;;7.08;100.00
57900;BME280;60605;53.716;19.940;2024-02-26T18:15:55;99834.64;;;7.24;100.00
57900;BME280;60605;53.716;19.940;2024-02-26T18:20:59;99838.83;;;7.42;100.00
57900;BME280;60605;53.716;19.940;2024-02-26T18:26:01;99843.02;;;7.59;100.00
57900;BME280;60605;53.716;19.940;2024-02-26T18:31:03;99840.45;;;7.75;100.00
57900;BME280;60605;53.716;19.940;2024-02-26T18:36:07;99845.49;;;7.85;100.00
57900;BME280;60605;53.716;19.940;2024-02-26T18:41:17;99850.95;;;7.91;100.00
57900;BME280;60605;53.716;19.940;2024-02-26T18:46:20;99855.64;;;7.94;100.00
57900;BME280;60605;53.716;19.940;2024-02-26T18:51:23;99860.57;;;7.97;100.00
57900;BME280;60605;53.716;19.940;2024-02-26T18:56:26;99862.11;;;7.97;100.00
57900;BME280;60605;53.716;19.940;2024-02-26T19:01:29;99863.69;;;7.97;100.00
57900;BME280;60605;53.716;19.940;2024-02-26T19:06:33;99865.96;;;7.94;100.00
57900;BME280;60605;53.716;19.940;2024-02-26T19:11:37;99870.70;;;7.85;100.00
57900;BME280;60605;53.716;19.940;2024-02-26T19:16:40;99873.69;;;7.75;100.00
57900;BME280;60605;53.716;19.940;2024-02-26T19:21:43;99879.96;;;7.65;100.00
57900;BME280;60605;53.716;19.940;2024-02-26T19:26:45;99885.54;;;7.55;100.00
57900;BME280;60605;53.716;19.940;2024-02-26T19:31:48;99883.65;;;7.45;100.00
57900;BME280;60605;53.716;19.940;2024-02-26T19:36:50;99888.23;;;7.34;100.00
57900;BME280;60605;53.716;19.940;2024-02-26T19:41:52;99896.57;;;7.21;100.00
57900;BME280;60605;53.716;19.940;2024-02-26T19:46:55;99902.16;;;7.06;100.00
57900;BME280;60605;53.716;19.940;2024-02-26T19:51:57;99904.16;;;6.90;100.00
57900;BME280;60605;53.716;19.940;2024-02-26T19:57:01;99899.39;;;6.73;100.00
57900;BME280;60605;53.716;19.940;2024-02-26T20:02:06;99899.69;;;6.54;100.00
57900;BME280;60605;53.716;19.940;2024-02-26T20:07:09;99902.60;;;6.33;100.00
57900;BME280;60605;53.716;19.940;2024-02-26T20:12:11;99905.71;;;6.14;100.00
57900;BME280;60605;53.716;19.940;2024-02-26T20:17:13;99908.44;;;6.03;100.00
57900;BME280;60605;53.716;19.940;2024-02-26T20:22:17;99908.77;;;6.01;100.00
57900;BME280;60605;53.716;19.940;2024-02-26T20:27:20;99913.67;;;6.02;100.00
57900;BME280;60605;53.716;19.940;2024-02-26T20:32:24;99906.83;;;6.04;100.00
57900;BME280;60605;53.716;19.940;2024-02-26T20:37:28;99905.98;;;6.03;100.00
57900;BME280;60605;53.716;19.940;2024-02-26T20:42:30;99910.09;;;6.01;100.00
57900;BME280;60605;53.716;19.940;2024-02-26T20:47:33;99914.75;;;5.94;100.00
57900;BME280;60605;53.716;19.940;2024-02-26T20:52:35;99917.67;;;5.81;100.00
57900;BME280;60605;53.716;19.940;2024-02-26T20:57:38;99928.09;;;5.60;100.00
57900;BME280;60605;53.716;19.940;2024-02-26T21:02:41;99929.16;;;5.41;100.00
57900;BME280;60605;53.716;19.940;2024-02-26T21:07:43;99918.77;;;5.30;100.00
57900;BME280;60605;53.716;19.940;2024-02-26T21:12:49;99914.68;;;5.26;100.00
57900;BME280;60605;53.716;19.940;2024-02-26T21:17:52;99912.73;;;5.32;100.00
57900;BME280;60605;53.716;19.940;2024-02-26T21:22:54;99905.16;;;5.40;100.00
57900;BME280;60605;53.716;19.940;2024-02-26T21:27:57;99898.95;;;5.51;100.00
57900;BME280;60605;53.716;19.940;2024-02-26T21:33:01;99898.69;;;5.65;100.00
57900;BME280;60605;53.716;19.940;2024-02-26T21:38:04;99890.55;;;5.77;100.00
57900;BME280;60605;53.716;19.940;2024-02-26T21:43:09;99881.19;;;5.85;100.00
57900;BME280;60605;53.716;19.940;2024-02-26T21:48:13;99888.63;;;5.91;100.00
57900;BME280;60605;53.716;19.940;2024-02-26T21:53:15;99884.86;;;5.93;100.00
57900;BME280;60605;53.716;19.940;2024-02-26T21:58:17;99886.15;;;5.95;100.00
57900;BME280;60605;53.716;19.940;2024-02-26T22:03:21;99898.48;;;5.98;100.00
57900;BME280;60605;53.716;19.940;2024-02-26T22:08:24;99899.08;;;5.95;100.00
57900;BME280;60605;53.716;19.940;2024-02-26T22:13:27;99905.79;;;5.89;100.00
57900;BME280;60605;53.716;19.940;2024-02-26T22:18:29;99915.13;;;5.84;100.00
57900;BME280;60605;53.716;19.940;2024-02-26T22:23:32;99913.66;;;5.80;100.00
57900;BME280;60605;53.716;19.940;2024-02-26T22:28:35;99910.35;;;5.75;100.00
57900;BME280;60605;53.716;19.940;2024-02-26T22:33:37;99917.44;;;5.73;100.00
57900;BME280;60605;53.716;19.940;2024-02-26T22:38:39;99921.77;;;5.72;100.00
57900;BME280;60605;53.716;19.940;2024-02-26T22:43:42;99915.67;;;5.71;100.00
57900;BME280;60605;53.716;19.940;2024-02-26T22:48:44;99913.88;;;5.73;100.00
57900;BME280;60605;53.716;19.940;2024-02-26T22:53:46;99910.91;;;5.79;100.00
57900;BME280;60605;53.716;19.940;2024-02-26T22:58:48;99914.43;;;5.83;100.00
57900;BME280;60605;53.716;19.940;2024-02-26T23:03:51;99916.83;;;5.89;100.00
57900;BME280;60605;53.716;19.940;2024-02-26T23:08:53;99919.26;;;5.93;100.00
57900;BME280;60605;53.716;19.940;2024-02-26T23:13:56;99930.52;;;5.98;100.00
57900;BME280;60605;53.716;19.940;2024-02-26T23:18:58;99936.95;;;6.04;100.00
57900;BME280;60605;53.716;19.940;2024-02-26T23:24:01;99937.13;;;6.07;100.00
57900;BME280;60605;53.716;19.940;2024-02-26T23:29:03;99941.63;;;6.11;100.00
57900;BME280;60605;53.716;19.940;2024-02-26T23:34:05;99941.23;;;6.15;100.00
57900;BME280;60605;53.716;19.940;2024-02-26T23:39:07;99936.31;;;6.19;100.00
57900;BME280;60605;53.716;19.940;2024-02-26T23:44:10;99926.34;;;6.22;100.00
57900;BME280;60605;53.716;19.940;2024-02-26T23:49:12;99924.02;;;6.25;100.00
57900;BME280;60605;53.716;19.940;2024-02-26T23:54:13;99913.66;;;6.30;100.00
57900;BME280;60605;53.716;19.940;2024-02-26T23:59:15;99919.79;;;6.37;100.00
